Time;durP1;ratioP1;P1;durP2;ratioP2;P2;SDS_P1;SDS_P2;PMS_P1;PMS_P2;Temp;Humidity;BMP_temperature;BMP_pressure;BME280_temperature;BME280_humidity;BME280_pressure;Samples;Min_cycle;Max_cycle;Signal;HPM_P1;HPM_P2
2021/12/13 00:01:44;;;;;;;3.23;2.70;;;;;;;;;;5056381;28;20386;-55
2021/12/13 00:04:18;;;;;;;2.33;1.60;;;;;;;;;;5056613;28;20386;-54
2021/12/13 00:06:46;;;;;;;3.00;1.60;;;;;;;;;;5056324;28;20476;-54
2021/12/13 00:09:15;;;;;;;2.23;1.37;;;;;;;;;;5056135;28;20508;-57
2021/12/13 00:11:42;;;;;;;4.73;1.73;;;;;;;;;;5056269;28;20416;-54
2021/12/13 00:14:27;;;;;;;1.80;1.40;;;;;;;;;;5056178;28;20428;-52
2021/12/13 00:17:16;;;;;;;2.53;1.50;;;;;;;;;;5055942;28;20832;-54
2021/12/13 00:19:46;;;;;;;3.00;1.90;;;;;;;;;;5048339;28;20491;-54
2021/12/13 00:22:14;;;;;;;1.87;1.50;;;;;;;;;;5056301;28;20485;-56
2021/12/13 00:24:41;;;;;;;2.10;1.27;;;;;;;;;;5056074;28;20400;-57
2021/12/13 00:27:09;;;;;;;2.37;1.60;;;;;;;;;;5055821;28;20406;-55
2021/12/13 00:29:42;;;;;;;3.83;2.13;;;;;;;;;;5055254;28;20509;-58
2021/12/13 00:32:14;;;;;;;2.40;1.50;;;;;;;;;;5055025;28;20512;-58
2021/12/13 00:34:43;;;;;;;2.20;1.53;;;;;;;;;;5055452;28;20394;-59
2021/12/13 00:37:17;;;;;;;3.40;1.30;;;;;;;;;;5055377;28;20463;-58
2021/12/13 00:40:00;;;;;;;3.10;1.37;;;;;;;;;;5055294;28;20532;-56
2021/12/13 00:42:29;;;;;;;2.27;1.60;;;;;;;;;;5055258;28;20394;-57
2021/12/13 00:45:01;;;;;;;2.73;1.50;;;;;;;;;;5054700;28;20417;-56
2021/12/13 00:47:29;;;;;;;2.27;1.40;;;;;;;;;;5054957;28;20413;-56
2021/12/13 00:50:06;;;;;;;1.80;1.37;;;;;;;;;;5054927;28;20406;-58
2021/12/13 00:52:33;;;;;;;1.97;1.40;;;;;;;;;;5055154;28;20743;-59
2021/12/13 00:55:00;;;;;;;2.23;1.53;;;;;;;;;;5055067;28;20464;-57
2021/12/13 00:57:26;;;;;;;2.00;1.30;;;;;;;;;;5054831;28;20449;-58
2021/12/13 00:59:58;;;;;;;2.03;1.53;;;;;;;;;;5055047;28;20438;-58
2021/12/13 01:02:38;;;;;;;2.00;1.70;;;;;;;;;;5055414;28;20397;-59
2021/12/13 01:05:10;;;;;;;2.93;1.50;;;;;;;;;;5054856;28;20428;-58
2021/12/13 01:07:55;;;;;;;2.20;1.30;;;;;;;;;;5055099;28;20424;-59
2021/12/13 01:10:42;;;;;;;2.30;1.57;;;;;;;;;;5055029;28;20390;-59
2021/12/13 01:13:28;;;;;;;2.13;1.27;;;;;;;;;;5054567;28;20386;-59
2021/12/13 01:16:01;;;;;;;2.87;1.50;;;;;;;;;;5054455;28;20466;-56
2021/12/13 01:18:36;;;;;;;2.33;1.70;;;;;;;;;;5054798;28;20420;-58
2021/12/13 01:23:42;;;;;;;1.57;1.20;;;;;;;;;;5054488;28;20500;-59
2021/12/13 01:28:47;;;;;;;2.20;1.33;;;;;;;;;;5054544;28;20423;-59
2021/12/13 01:31:26;;;;;;;3.67;1.50;;;;;;;;;;5054570;28;20401;-56
2021/12/13 01:33:53;;;;;;;2.30;1.80;;;;;;;;;;5054392;28;20398;-57
2021/12/13 01:36:27;;;;;;;1.80;1.40;;;;;;;;;;5054458;28;20445;-58
2021/12/13 01:38:55;;;;;;;2.47;1.60;;;;;;;;;;5054682;28;20426;-57
2021/12/13 01:41:23;;;;;;;2.47;1.60;;;;;;;;;;5054585;28;20391;-57
2021/12/13 01:43:52;;;;;;;3.33;1.70;;;;;;;;;;5054766;28;20406;-55
2021/12/13 01:46:20;;;;;;;2.03;1.70;;;;;;;;;;5054006;28;20773;-55
2021/12/13 01:48:47;;;;;;;2.07;1.50;;;;;;;;;;5054376;28;20989;-56
2021/12/13 01:51:15;;;;;;;2.27;1.47;;;;;;;;;;5054526;28;20456;-55
2021/12/13 01:53:44;;;;;;;2.00;1.30;;;;;;;;;;5054070;28;20409;-54
2021/12/13 01:59:15;;;;;;;1.83;1.63;;;;;;;;;;5054546;28;20472;-54
2021/12/13 02:01:43;;;;;;;1.87;1.30;;;;;;;;;;5054639;28;20408;-54
2021/12/13 02:04:13;;;;;;;3.13;1.50;;;;;;;;;;5054226;28;20425;-59
2021/12/13 02:06:39;;;;;;;1.83;1.23;;;;;;;;;;5053959;28;20416;-59
2021/12/13 02:09:16;;;;;;;1.90;1.30;;;;;;;;;;5043378;28;20535;-58
2021/12/13 02:11:44;;;;;;;1.70;1.37;;;;;;;;;;5054362;28;20414;-58
2021/12/13 02:14:15;;;;;;;2.10;1.40;;;;;;;;;;5054238;28;20813;-55
2021/12/13 02:17:01;;;;;;;2.47;1.63;;;;;;;;;;5054435;28;20437;-58
2021/12/13 02:19:46;;;;;;;2.23;1.47;;;;;;;;;;5053687;28;20493;-56
2021/12/13 02:22:24;;;;;;;1.80;1.53;;;;;;;;;;5053875;28;20767;-58
2021/12/13 02:24:52;;;;;;;1.97;1.37;;;;;;;;;;5053665;28;20463;-58
2021/12/13 02:27:21;;;;;;;1.70;1.30;;;;;;;;;;5053871;28;20489;-58
2021/12/13 02:29:47;;;;;;;2.00;1.37;;;;;;;;;;5053470;28;20528;-58
2021/12/13 02:32:14;;;;;;;2.23;1.57;;;;;;;;;;5053632;28;20467;-55
2021/12/13 02:34:42;;;;;;;2.10;1.30;;;;;;;;;;5054081;28;20398;-56
2021/12/13 02:37:09;;;;;;;4.40;1.77;;;;;;;;;;5053982;28;20531;-56
2021/12/13 02:39:38;;;;;;;1.53;1.30;;;;;;;;;;5054048;28;20436;-55
2021/12/13 02:42:07;;;;;;;1.73;1.20;;;;;;;;;;5053766;28;20424;-54
2021/12/13 02:44:37;;;;;;;1.93;1.50;;;;;;;;;;5053267;28;20398;-57
2021/12/13 02:47:07;;;;;;;6.00;1.83;;;;;;;;;;5053006;28;20431;-56
2021/12/13 02:49:33;;;;;;;2.30;1.43;;;;;;;;;;5052839;28;20488;-57
2021/12/13 02:52:02;;;;;;;4.27;1.37;;;;;;;;;;5052880;28;20397;-58
2021/12/13 02:54:29;;;;;;;1.50;1.10;;;;;;;;;;5052718;28;20406;-58
2021/12/13 02:56:59;;;;;;;1.80;1.30;;;;;;;;;;5052894;28;20468;-55
2021/12/13 02:59:27;;;;;;;2.80;1.50;;;;;;;;;;5053298;28;20426;-54
2021/12/13 03:02:14;;;;;;;2.77;1.50;;;;;;;;;;5053548;28;20428;-56
2021/12/13 03:04:40;;;;;;;2.50;1.23;;;;;;;;;;5053352;28;20470;-57
2021/12/13 03:07:09;;;;;;;3.17;1.30;;;;;;;;;;5053374;28;20455;-56
2021/12/13 03:09:38;;;;;;;2.40;1.40;;;;;;;;;;5055226;28;20429;-55
2021/12/13 03:12:05;;;;;;;1.80;1.30;;;;;;;;;;5057138;28;20398;-54
2021/12/13 03:14:33;;;;;;;2.00;1.50;;;;;;;;;;5056973;28;20455;-56
2021/12/13 03:17:05;;;;;;;3.00;1.47;;;;;;;;;;5056979;28;20502;-57
2021/12/13 03:19:43;;;;;;;1.80;1.53;;;;;;;;;;5057126;28;20453;-57
2021/12/13 03:22:29;;;;;;;1.80;1.43;;;;;;;;;;5057314;28;20427;-58
2021/12/13 03:25:02;;;;;;;2.80;1.70;;;;;;;;;;5057227;28;20439;-57
2021/12/13 03:27:37;;;;;;;2.00;1.33;;;;;;;;;;5056929;28;20420;-56
2021/12/13 03:30:08;;;;;;;2.60;1.37;;;;;;;;;;5056793;28;20397;-55
2021/12/13 03:32:38;;;;;;;2.10;1.70;;;;;;;;;;5057051;28;20416;-55
2021/12/13 03:35:07;;;;;;;3.70;1.47;;;;;;;;;;5056326;28;20405;-57
2021/12/13 03:37:34;;;;;;;2.10;1.53;;;;;;;;;;5056593;28;20405;-58
2021/12/13 03:40:02;;;;;;;1.70;1.37;;;;;;;;;;5056627;28;20414;-57
2021/12/13 03:42:30;;;;;;;1.90;1.60;;;;;;;;;;5047474;28;20432;-57
2021/12/13 03:44:58;;;;;;;1.90;1.40;;;;;;;;;;5056526;28;20860;-58
2021/12/13 03:47:27;;;;;;;2.57;1.30;;;;;;;;;;5056601;28;20524;-57
2021/12/13 03:49:55;;;;;;;2.40;1.50;;;;;;;;;;5056646;28;20497;-57
2021/12/13 03:52:23;;;;;;;2.60;1.50;;;;;;;;;;5056549;28;20421;-54
2021/12/13 03:54:50;;;;;;;1.40;1.30;;;;;;;;;;5056481;28;20521;-58
2021/12/13 03:57:18;;;;;;;1.97;1.50;;;;;;;;;;5056320;28;20456;-58
2021/12/13 03:59:45;;;;;;;3.00;1.77;;;;;;;;;;5056305;28;20418;-58
2021/12/13 04:02:14;;;;;;;2.37;1.77;;;;;;;;;;5056185;28;20402;-59
2021/12/13 04:04:47;;;;;;;2.43;1.70;;;;;;;;;;5056271;28;20398;-56
2021/12/13 04:07:15;;;;;;;2.93;1.77;;;;;;;;;;5056184;28;20477;-58
2021/12/13 04:09:43;;;;;;;2.37;1.53;;;;;;;;;;5056471;28;20432;-57
2021/12/13 04:12:09;;;;;;;2.17;1.70;;;;;;;;;;5056009;28;20402;-58
2021/12/13 04:14:40;;;;;;;2.10;1.87;;;;;;;;;;5056414;28;20413;-56
2021/12/13 04:17:21;;;;;;;1.87;1.67;;;;;;;;;;5055979;28;20444;-59
2021/12/13 04:19:47;;;;;;;2.10;1.47;;;;;;;;;;5055333;28;20429;-57
2021/12/13 04:22:14;;;;;;;1.80;1.40;;;;;;;;;;5055033;28;20406;-58
2021/12/13 04:24:44;;;;;;;2.03;1.60;;;;;;;;;;5056002;28;20398;-57
2021/12/13 04:27:16;;;;;;;1.80;1.30;;;;;;;;;;5056130;28;20480;-57
2021/12/13 04:29:43;;;;;;;2.17;1.57;;;;;;;;;;5048745;28;20524;-58
2021/12/13 04:32:11;;;;;;;2.97;1.50;;;;;;;;;;5035800;28;20415;-57
2021/12/13 04:34:41;;;;;;;1.90;1.23;;;;;;;;;;5035952;28;20411;-59
2021/12/13 04:37:10;;;;;;;2.00;1.53;;;;;;;;;;5035806;28;20508;-55
2021/12/13 04:39:37;;;;;;;2.50;1.70;;;;;;;;;;5035948;28;20431;-56
2021/12/13 04:42:14;;;;;;;2.67;1.90;;;;;;;;;;5035542;28;20407;-55
2021/12/13 04:45:00;;;;;;;2.50;1.60;;;;;;;;;;5036059;28;20790;-58
2021/12/13 04:47:29;;;;;;;2.50;1.80;;;;;;;;;;5035228;28;20421;-58
2021/12/13 04:50:19;;;;;;;5.43;2.10;;;;;;;;;;5035901;28;20943;-58
2021/12/13 04:52:46;;;;;;;4.70;1.93;;;;;;;;;;5030498;28;20929;-57
2021/12/13 04:55:15;;;;;;;3.33;1.87;;;;;;;;;;5035412;28;20488;-57
2021/12/13 04:57:42;;;;;;;2.10;1.47;;;;;;;;;;5034542;28;20438;-58
2021/12/13 05:00:11;;;;;;;2.10;1.90;;;;;;;;;;5034509;28;20405;-56
2021/12/13 05:02:39;;;;;;;2.37;1.70;;;;;;;;;;5034580;28;20399;-57
2021/12/13 05:05:06;;;;;;;2.50;2.10;;;;;;;;;;5034708;28;20840;-58
2021/12/13 05:07:34;;;;;;;2.60;2.00;;;;;;;;;;5034551;28;20814;-55
2021/12/13 05:10:00;;;;;;;2.37;1.80;;;;;;;;;;5034715;28;20410;-55
2021/12/13 05:12:28;;;;;;;2.47;1.80;;;;;;;;;;5032890;28;20414;-57
2021/12/13 05:14:59;;;;;;;2.20;2.00;;;;;;;;;;5034297;28;20823;-58
2021/12/13 05:17:28;;;;;;;2.50;2.23;;;;;;;;;;5033736;28;20482;-58
2021/12/13 05:19:58;;;;;;;2.03;1.63;;;;;;;;;;5034749;28;20801;-57
2021/12/13 05:22:24;;;;;;;2.70;2.00;;;;;;;;;;5032700;28;20418;-58
2021/12/13 05:24:59;;;;;;;1.90;1.67;;;;;;;;;;5034320;28;20810;-58
2021/12/13 05:27:30;;;;;;;2.50;2.20;;;;;;;;;;5034061;28;20406;-57
2021/12/13 05:30:16;;;;;;;3.10;1.90;;;;;;;;;;5034458;28;20453;-58
2021/12/13 05:32:47;;;;;;;3.30;1.60;;;;;;;;;;5034193;28;20390;-55
2021/12/13 05:35:16;;;;;;;2.63;1.70;;;;;;;;;;5034085;28;20529;-58
2021/12/13 05:37:48;;;;;;;5.43;2.17;;;;;;;;;;5033988;28;20430;-58
2021/12/13 05:40:16;;;;;;;2.93;2.00;;;;;;;;;;5033754;28;20403;-54
2021/12/13 05:42:53;;;;;;;3.03;2.10;;;;;;;;;;5033678;28;20402;-57
2021/12/13 05:45:21;;;;;;;2.77;2.57;;;;;;;;;;5033947;28;20755;-58
2021/12/13 05:48:05;;;;;;;3.17;2.40;;;;;;;;;;5033590;28;21028;-57
2021/12/13 05:50:40;;;;;;;2.50;2.30;;;;;;;;;;5033672;28;20418;-54
2021/12/13 05:53:12;;;;;;;4.90;3.53;;;;;;;;;;5033855;28;20440;-57
2021/12/13 05:58:37;;;;;;;2.77;2.40;;;;;;;;;;5071164;28;20659;-57
2021/12/13 06:01:11;;;;;;;2.40;2.20;;;;;;;;;;5071387;28;20389;-58
2021/12/13 06:03:38;;;;;;;2.30;2.10;;;;;;;;;;5071575;28;20452;-56
2021/12/13 06:06:06;;;;;;;3.00;2.37;;;;;;;;;;5071353;28;20388;-58
2021/12/13 06:08:35;;;;;;;2.07;1.77;;;;;;;;;;5071112;28;20408;-58
2021/12/13 06:11:03;;;;;;;4.00;2.40;;;;;;;;;;5071219;28;20389;-57
2021/12/13 06:13:48;;;;;;;1.90;1.70;;;;;;;;;;5071074;28;20394;-58
2021/12/13 06:16:34;;;;;;;4.20;2.07;;;;;;;;;;5070872;28;20448;-58
2021/12/13 06:19:06;;;;;;;2.50;2.30;;;;;;;;;;5071324;28;20451;-58
2021/12/13 06:21:41;;;;;;;2.43;2.03;;;;;;;;;;5071401;28;20405;-58
2021/12/13 06:24:08;;;;;;;3.60;2.23;;;;;;;;;;5070773;28;20412;-58
2021/12/13 06:26:35;;;;;;;3.53;2.40;;;;;;;;;;5070776;28;20825;-58
2021/12/13 06:29:02;;;;;;;7.47;2.50;;;;;;;;;;5070795;28;20448;-57
2021/12/13 06:31:41;;;;;;;2.20;1.80;;;;;;;;;;5070626;28;20412;-58
2021/12/13 06:34:09;;;;;;;2.87;2.20;;;;;;;;;;5070643;28;20393;-58
2021/12/13 06:36:37;;;;;;;3.27;2.30;;;;;;;;;;5070696;28;20474;-58
2021/12/13 06:39:08;;;;;;;2.33;2.13;;;;;;;;;;5070822;28;20437;-57
2021/12/13 06:41:38;;;;;;;2.30;2.10;;;;;;;;;;5070802;28;20481;-58
2021/12/13 06:44:18;;;;;;;4.20;2.00;;;;;;;;;;5070997;28;20731;-56
2021/12/13 06:47:13;;;;;;;4.57;2.50;;;;;;;;;;5070542;28;20386;-57
2021/12/13 06:49:48;;;;;;;4.60;2.13;;;;;;;;;;5070086;28;20522;-58
2021/12/13 06:52:14;;;;;;;4.20;2.60;;;;;;;;;;5070095;28;20393;-57
2021/12/13 06:54:42;;;;;;;3.17;2.63;;;;;;;;;;5070428;28;20409;-58
2021/12/13 06:57:10;;;;;;;4.13;2.73;;;;;;;;;;5069934;28;20460;-55
2021/12/13 06:59:54;;;;;;;4.63;2.57;;;;;;;;;;5070260;28;20413;-58
2021/12/13 07:02:22;;;;;;;4.13;2.37;;;;;;;;;;5069962;28;20397;-59
2021/12/13 07:04:50;;;;;;;3.30;2.37;;;;;;;;;;5070097;28;20462;-59
2021/12/13 07:07:17;;;;;;;3.00;2.17;;;;;;;;;;5070073;28;20407;-58
2021/12/13 07:09:54;;;;;;;2.90;2.43;;;;;;;;;;5057684;28;20434;-57
2021/12/13 07:12:21;;;;;;;3.90;2.50;;;;;;;;;;5050783;28;20429;-67
2021/12/13 07:14:48;;;;;;;4.00;2.70;;;;;;;;;;5040331;28;20425;-66
2021/12/13 07:17:17;;;;;;;3.70;3.27;;;;;;;;;;5041392;28;20442;-60
2021/12/13 07:19:45;;;;;;;6.57;3.20;;;;;;;;;;5045083;28;20516;-60
2021/12/13 07:22:16;;;;;;;5.70;3.80;;;;;;;;;;5041096;28;20418;-60
2021/12/13 07:24:44;;;;;;;6.07;3.80;;;;;;;;;;5042532;28;20414;-60
2021/12/13 07:27:12;;;;;;;4.83;3.73;;;;;;;;;;5041022;28;20897;-69
2021/12/13 07:29:46;;;;;;;6.00;4.50;;;;;;;;;;5040935;28;20529;-61
2021/12/13 07:32:19;;;;;;;5.57;4.70;;;;;;;;;;5038213;28;20410;-59
2021/12/13 07:34:51;;;;;;;7.33;5.00;;;;;;;;;;5042514;28;20417;-60
2021/12/13 07:37:18;;;;;;;10.37;5.53;;;;;;;;;;5056122;28;20475;-61
2021/12/13 07:39:44;;;;;;;7.20;5.43;;;;;;;;;;5050231;28;20441;-61
2021/12/13 07:42:13;;;;;;;7.13;5.37;;;;;;;;;;5058672;28;20433;-61
2021/12/13 07:44:44;;;;;;;8.70;6.13;;;;;;;;;;5050285;28;20424;-61
2021/12/13 07:47:16;;;;;;;10.53;5.40;;;;;;;;;;5043085;28;20495;-59
2021/12/13 07:49:44;;;;;;;7.43;5.60;;;;;;;;;;5046090;28;20506;-59
2021/12/13 07:52:21;;;;;;;9.10;6.10;;;;;;;;;;5042692;28;20419;-59
2021/12/13 07:54:48;;;;;;;9.80;6.40;;;;;;;;;;5043647;28;20429;-58
2021/12/13 07:57:16;;;;;;;10.43;6.30;;;;;;;;;;5044885;28;20464;-63
2021/12/13 07:59:42;;;;;;;11.27;6.53;;;;;;;;;;5048106;28;20441;-63
2021/12/13 08:02:31;;;;;;;10.20;5.83;;;;;;;;;;5036856;28;20461;-67
2021/12/13 08:05:07;;;;;;;10.07;6.30;;;;;;;;;;5044410;28;20423;-66
2021/12/13 08:07:42;;;;;;;9.00;6.20;;;;;;;;;;5051404;28;20508;-64
2021/12/13 08:10:13;;;;;;;8.43;6.20;;;;;;;;;;5048497;28;20422;-65
2021/12/13 08:12:44;;;;;;;12.43;7.50;;;;;;;;;;5049143;28;20907;-61
2021/12/13 08:15:13;;;;;;;9.47;7.00;;;;;;;;;;5037633;28;20435;-63
2021/12/13 08:17:41;;;;;;;12.93;6.20;;;;;;;;;;5040084;28;20482;-54
2021/12/13 08:20:09;;;;;;;13.90;7.27;;;;;;;;;;5044792;28;20826;-62
2021/12/13 08:22:41;;;;;;;8.97;7.20;;;;;;;;;;5045491;28;20417;-56
2021/12/13 08:25:10;;;;;;;8.17;6.03;;;;;;;;;;5038431;28;20966;-56
2021/12/13 08:27:38;;;;;;;7.67;6.40;;;;;;;;;;5040949;28;20819;-56
2021/12/13 08:30:24;;;;;;;7.93;5.83;;;;;;;;;;5038348;28;20425;-65
2021/12/13 08:33:11;;;;;;;13.60;6.97;;;;;;;;;;5040737;28;20468;-65
2021/12/13 08:35:57;;;;;;;17.03;6.17;;;;;;;;;;5037623;28;20453;-65
2021/12/13 08:38:26;;;;;;;10.50;5.90;;;;;;;;;;5048452;28;20458;-66
2021/12/13 08:40:52;;;;;;;9.90;6.60;;;;;;;;;;5043300;28;20870;-70
2021/12/13 08:43:32;;;;;;;14.33;6.73;;;;;;;;;;5044641;28;20903;-68
2021/12/13 08:45:58;;;;;;;6.97;5.50;;;;;;;;;;5040444;28;20441;-70
2021/12/13 08:48:24;;;;;;;7.93;5.03;;;;;;;;;;5046498;28;20535;-67
2021/12/13 08:50:54;;;;;;;8.80;6.00;;;;;;;;;;5048274;28;20468;-66
2021/12/13 08:53:29;;;;;;;12.20;7.47;;;;;;;;;;5045006;28;20433;-66
2021/12/13 08:56:00;;;;;;;10.07;6.87;;;;;;;;;;5047522;28;20950;-69
2021/12/13 08:58:26;;;;;;;8.80;5.20;;;;;;;;;;5042416;28;20596;-66
2021/12/13 09:01:02;;;;;;;8.00;5.32;;;;;;;;;;5043819;28;20896;-66
2021/12/13 09:03:28;;;;;;;6.20;4.90;;;;;;;;;;5047117;28;20224;-63
2021/12/13 09:05:58;;;;;;;5.80;4.80;;;;;;;;;;5037869;28;20419;-57
2021/12/13 09:08:36;;;;;;;4.77;4.17;;;;;;;;;;5048288;28;20528;-62
2021/12/13 09:11:15;;;;;;;5.73;4.77;;;;;;;;;;5043412;28;20430;-68
2021/12/13 09:13:44;;;;;;;5.37;3.90;;;;;;;;;;5041002;28;20399;-68
2021/12/13 09:16:11;;;;;;;10.40;5.90;;;;;;;;;;5044878;28;20548;-65
2021/12/13 09:18:37;;;;;;;6.77;4.63;;;;;;;;;;5046344;28;20450;-63
2021/12/13 09:21:04;;;;;;;5.53;5.03;;;;;;;;;;5046321;28;20442;-65
2021/12/13 09:23:51;;;;;;;7.00;4.87;;;;;;;;;;5039196;28;20413;-63
2021/12/13 09:26:26;;;;;;;6.80;4.90;;;;;;;;;;5038973;28;20399;-62
2021/12/13 09:29:05;;;;;;;5.90;4.57;;;;;;;;;;5036485;28;20496;-63
2021/12/13 09:31:34;;;;;;;10.33;5.57;;;;;;;;;;5043080;28;20413;-67
2021/12/13 09:34:07;;;;;;;13.13;5.03;;;;;;;;;;5041563;28;20421;-64
2021/12/13 09:36:36;;;;;;;8.07;5.47;;;;;;;;;;5038968;28;20441;-67
2021/12/13 09:39:21;;;;;;;6.50;5.80;;;;;;;;;;5050428;28;20187;-64
2021/12/13 09:42:07;;;;;;;7.80;5.60;;;;;;;;;;5045878;28;20417;-64
2021/12/13 09:44:48;;;;;;;5.70;4.70;;;;;;;;;;5047303;28;20410;-64
2021/12/13 09:47:14;;;;;;;7.13;4.40;;;;;;;;;;5037763;28;20500;-64
2021/12/13 09:49:45;;;;;;;6.20;4.77;;;;;;;;;;5037992;28;20795;-68
2021/12/13 09:52:17;;;;;;;4.73;4.10;;;;;;;;;;5044402;28;20482;-69
2021/12/13 09:54:43;;;;;;;6.23;4.37;;;;;;;;;;5041001;28;20434;-71
2021/12/13 09:57:11;;;;;;;4.93;3.60;;;;;;;;;;5035284;28;20493;-69
2021/12/13 09:59:40;;;;;;;5.80;5.00;;;;;;;;;;5043201;28;20442;-67
2021/12/13 10:02:10;;;;;;;8.27;5.27;;;;;;;;;;5043774;28;20557;-60
2021/12/13 10:04:38;;;;;;;6.23;5.23;;;;;;;;;;5047371;28;20422;-60
2021/12/13 10:07:24;;;;;;;6.63;4.93;;;;;;;;;;5040799;28;21911;-60
2021/12/13 10:09:56;;;;;;;9.57;5.10;;;;;;;;;;5039270;28;20450;-66
2021/12/13 10:12:28;;;;;;;6.50;4.50;;;;;;;;;;5047425;28;20421;-60
2021/12/13 10:15:05;;;;;;;4.90;4.40;;;;;;;;;;5040838;28;20433;-66
2021/12/13 10:17:36;;;;;;;11.00;5.40;;;;;;;;;;5044931;28;20811;-73
2021/12/13 10:20:05;;;;;;;5.60;4.90;;;;;;;;;;5045939;28;20987;-66
2021/12/13 10:22:32;;;;;;;6.30;4.40;;;;;;;;;;5042825;28;20414;-66
2021/12/13 10:25:19;;;;;;;7.93;5.20;;;;;;;;;;5042501;28;20585;-63
2021/12/13 10:27:46;;;;;;;6.00;5.33;;;;;;;;;;5037166;28;20521;-67
2021/12/13 10:30:15;;;;;;;6.07;4.20;;;;;;;;;;5038877;28;20552;-65
2021/12/13 10:32:41;;;;;;;5.27;4.37;;;;;;;;;;5054529;28;20416;-64
2021/12/13 10:35:10;;;;;;;4.97;4.20;;;;;;;;;;5041919;28;20547;-66
2021/12/13 10:37:41;;;;;;;5.30;4.30;;;;;;;;;;5057991;28;20490;-67
2021/12/13 10:40:36;;;;;;;5.27;4.13;;;;;;;;;;5039770;28;20422;-65
2021/12/13 10:43:22;;;;;;;6.70;5.10;;;;;;;;;;5031628;28;20457;-64
2021/12/13 10:45:52;;;;;;;5.20;4.43;;;;;;;;;;5044254;28;20411;-65
2021/12/13 10:48:20;;;;;;;5.07;3.87;;;;;;;;;;5034689;28;20452;-58
2021/12/13 10:50:51;;;;;;;5.20;3.97;;;;;;;;;;5045816;28;20439;-59
2021/12/13 10:53:19;;;;;;;6.47;4.50;;;;;;;;;;5036791;28;20426;-57
2021/12/13 10:55:48;;;;;;;5.80;4.33;;;;;;;;;;5042971;28;20666;-67
2021/12/13 10:58:18;;;;;;;6.53;5.60;;;;;;;;;;5048783;28;20472;-67
2021/12/13 11:00:50;;;;;;;6.83;5.23;;;;;;;;;;5042790;28;20418;-66
2021/12/13 11:03:19;;;;;;;5.20;4.37;;;;;;;;;;5053983;28;20491;-67
2021/12/13 11:05:45;;;;;;;5.83;4.57;;;;;;;;;;5036321;28;20410;-68
2021/12/13 11:08:13;;;;;;;12.37;5.90;;;;;;;;;;5035467;28;20865;-68
2021/12/13 11:10:42;;;;;;;36.83;10.60;;;;;;;;;;5041475;28;20449;-67
2021/12/13 11:13:08;;;;;;;9.40;5.20;;;;;;;;;;5047069;28;20426;-66
2021/12/13 11:15:36;;;;;;;5.60;4.90;;;;;;;;;;5048906;28;20428;-66
2021/12/13 11:18:04;;;;;;;5.77;5.00;;;;;;;;;;5041260;28;20482;-66
2021/12/13 11:20:34;;;;;;;7.33;4.23;;;;;;;;;;5039595;28;21028;-65
2021/12/13 11:23:01;;;;;;;5.90;4.20;;;;;;;;;;5048845;28;20926;-66
2021/12/13 11:25:32;;;;;;;7.30;4.87;;;;;;;;;;5040461;28;20457;-66
2021/12/13 11:27:59;;;;;;;5.60;4.90;;;;;;;;;;5042646;28;20760;-57
2021/12/13 11:30:27;;;;;;;7.17;5.57;;;;;;;;;;5043060;28;20413;-57
2021/12/13 11:32:59;;;;;;;6.20;5.10;;;;;;;;;;5045888;28;20429;-63
2021/12/13 11:35:44;;;;;;;7.70;5.20;;;;;;;;;;5039532;28;20425;-67
2021/12/13 11:38:30;;;;;;;11.00;6.37;;;;;;;;;;5052819;28;20523;-66
2021/12/13 11:41:14;;;;;;;9.03;5.97;;;;;;;;;;5044691;28;20415;-67
2021/12/13 11:43:58;;;;;;;6.60;5.70;;;;;;;;;;5035760;28;20926;-68
2021/12/13 11:46:43;;;;;;;10.13;8.00;;;;;;;;;;5041211;28;20421;-67
2021/12/13 11:49:35;;;;;;;5.63;4.63;;;;;;;;;;5036487;28;20437;-68
2021/12/13 11:52:13;;;;;;;7.67;5.70;;;;;;;;;;5037793;28;20423;-60
2021/12/13 11:55:00;;;;;;;5.20;4.20;;;;;;;;;;5044407;28;20410;-61
2021/12/13 11:57:35;;;;;;;5.50;4.53;;;;;;;;;;5047151;28;20473;-60
2021/12/13 12:00:12;;;;;;;6.83;5.60;;;;;;;;;;5042154;28;20448;-64
2021/12/13 12:02:53;;;;;;;6.80;5.37;;;;;;;;;;5043179;28;20502;-63
2021/12/13 12:05:37;;;;;;;7.93;6.13;;;;;;;;;;5037664;28;20418;-59
2021/12/13 12:08:23;;;;;;;8.33;6.33;;;;;;;;;;5038907;28;20464;-59
2021/12/13 12:11:02;;;;;;;8.10;7.20;;;;;;;;;;5048435;28;20434;-60
2021/12/13 12:13:42;;;;;;;8.27;6.87;;;;;;;;;;5049570;28;20913;-60
2021/12/13 12:16:08;;;;;;;9.70;6.30;;;;;;;;;;5046106;28;20898;-59
2021/12/13 12:18:37;;;;;;;7.63;6.47;;;;;;;;;;5047636;28;20461;-61
2021/12/13 12:21:35;;;;;;;9.97;7.30;;;;;;;;;;5038506;28;20418;-60
2021/12/13 12:24:03;;;;;;;7.27;6.50;;;;;;;;;;5044324;28;20457;-58
2021/12/13 12:26:30;;;;;;;8.93;7.13;;;;;;;;;;5036460;28;20781;-61
2021/12/13 12:28:58;;;;;;;10.20;6.43;;;;;;;;;;5044473;28;20469;-58
2021/12/13 12:31:35;;;;;;;8.10;6.20;;;;;;;;;;5047931;28;20869;-61
2021/12/13 12:34:03;;;;;;;7.73;6.53;;;;;;;;;;5039825;28;20446;-61
2021/12/13 12:36:46;;;;;;;7.43;6.27;;;;;;;;;;5042545;28;20784;-60
2021/12/13 12:39:21;;;;;;;10.20;6.47;;;;;;;;;;5046418;28;20527;-59
2021/12/13 12:41:51;;;;;;;9.73;6.70;;;;;;;;;;5046518;28;20420;-59
2021/12/13 12:44:18;;;;;;;7.60;6.57;;;;;;;;;;5042913;28;20735;-61
2021/12/13 12:46:45;;;;;;;7.57;5.80;;;;;;;;;;5042313;28;20827;-60
2021/12/13 12:49:30;;;;;;;7.47;6.23;;;;;;;;;;5038778;28;20787;-60
2021/12/13 12:52:04;;;;;;;8.43;6.60;;;;;;;;;;5040902;28;20429;-60
2021/12/13 12:54:33;;;;;;;11.73;7.20;;;;;;;;;;5034833;28;21041;-60
2021/12/13 12:57:00;;;;;;;6.87;5.77;;;;;;;;;;5046842;28;20465;-60
2021/12/13 12:59:28;;;;;;;8.70;6.47;;;;;;;;;;5035731;28;20477;-60
2021/12/13 13:02:03;;;;;;;10.53;8.27;;;;;;;;;;5040677;28;20421;-62
2021/12/13 13:04:40;;;;;;;7.17;6.47;;;;;;;;;;5039669;28;20583;-60
2021/12/13 13:07:12;;;;;;;8.43;6.63;;;;;;;;;;5049766;28;20405;-60
2021/12/13 13:10:26;;;;;;;8.53;7.20;;;;;;;;;;5036992;28;20775;-60
2021/12/13 13:12:54;;;;;;;11.47;7.10;;;;;;;;;;5039589;28;20496;-59
2021/12/13 13:15:23;;;;;;;7.70;6.60;;;;;;;;;;5035890;28;20493;-60
2021/12/13 13:17:52;;;;;;;8.70;6.53;;;;;;;;;;5034611;28;20469;-59
2021/12/13 13:20:18;;;;;;;8.37;6.73;;;;;;;;;;5037244;28;20426;-57
2021/12/13 13:22:45;;;;;;;8.43;6.60;;;;;;;;;;5042817;28;20508;-62
2021/12/13 13:25:11;;;;;;;7.10;6.40;;;;;;;;;;5036518;28;20426;-61
2021/12/13 13:27:40;;;;;;;9.30;7.73;;;;;;;;;;5042946;28;20422;-60
2021/12/13 13:30:12;;;;;;;11.33;8.23;;;;;;;;;;5040254;28;20472;-60
2021/12/13 13:32:38;;;;;;;9.13;7.83;;;;;;;;;;5048163;28;20870;-60
2021/12/13 13:35:05;;;;;;;11.93;7.20;;;;;;;;;;5044115;28;20426;-59
2021/12/13 13:37:33;;;;;;;9.57;7.73;;;;;;;;;;5042330;28;20829;-59
2021/12/13 13:40:06;;;;;;;10.00;7.60;;;;;;;;;;5048120;28;20573;-59
2021/12/13 13:42:33;;;;;;;10.43;7.87;;;;;;;;;;5040687;28;20410;-59
2021/12/13 13:45:02;;;;;;;10.07;8.93;;;;;;;;;;5038399;28;20450;-60
2021/12/13 13:47:30;;;;;;;11.00;9.80;;;;;;;;;;5035427;28;20774;-59
2021/12/13 13:49:57;;;;;;;9.97;8.50;;;;;;;;;;5036934;28;20430;-59
2021/12/13 13:52:31;;;;;;;9.50;8.40;;;;;;;;;;5040058;28;20521;-59
2021/12/13 13:54:59;;;;;;;11.00;9.40;;;;;;;;;;5040956;28;20422;-59
2021/12/13 13:57:30;;;;;;;10.13;8.87;;;;;;;;;;5050501;28;20484;-58
2021/12/13 13:59:58;;;;;;;14.67;8.93;;;;;;;;;;5036512;28;20411;-59
2021/12/13 14:02:32;;;;;;;15.30;11.27;;;;;;;;;;5044479;28;20845;-60
2021/12/13 14:05:00;;;;;;;14.10;11.13;;;;;;;;;;5038181;28;20425;-58
2021/12/13 14:07:27;;;;;;;13.50;10.30;;;;;;;;;;5046021;28;20457;-58
2021/12/13 14:09:58;;;;;;;14.07;11.40;;;;;;;;;;5047390;28;20428;-59
2021/12/13 14:12:24;;;;;;;12.80;10.57;;;;;;;;;;5040383;28;20934;-59
2021/12/13 14:14:53;;;;;;;13.60;10.10;;;;;;;;;;5046177;28;20431;-60
2021/12/13 14:17:38;;;;;;;14.23;10.33;;;;;;;;;;5044540;28;20457;-59
2021/12/13 14:20:14;;;;;;;12.10;10.37;;;;;;;;;;5043552;28;20430;-59
2021/12/13 14:22:40;;;;;;;13.80;10.80;;;;;;;;;;5044023;28;20963;-59
2021/12/13 14:25:06;;;;;;;16.40;10.40;;;;;;;;;;5048051;28;20417;-59
2021/12/13 14:27:33;;;;;;;15.30;12.30;;;;;;;;;;5052854;28;20520;-58
2021/12/13 14:30:11;;;;;;;17.03;12.40;;;;;;;;;;5046967;28;20425;-59
2021/12/13 14:32:38;;;;;;;16.23;11.30;;;;;;;;;;5051419;28;20448;-58
2021/12/13 14:35:18;;;;;;;13.27;11.13;;;;;;;;;;5053427;28;20413;-55
2021/12/13 14:37:45;;;;;;;13.53;10.67;;;;;;;;;;5047890;28;20461;-59
2021/12/13 14:40:11;;;;;;;16.00;11.70;;;;;;;;;;5044218;28;20431;-57
2021/12/13 14:42:38;;;;;;;16.77;11.97;;;;;;;;;;5037196;28;20513;-60
2021/12/13 14:45:07;;;;;;;14.47;10.93;;;;;;;;;;5039806;28;20417;-61
2021/12/13 14:47:46;;;;;;;14.57;9.83;;;;;;;;;;5042501;28;20425;-58
2021/12/13 14:50:18;;;;;;;17.40;11.43;;;;;;;;;;5050091;28;20413;-60
2021/12/13 14:52:49;;;;;;;15.30;11.47;;;;;;;;;;5036318;28;20422;-60
2021/12/13 14:55:17;;;;;;;14.97;11.70;;;;;;;;;;5043703;28;20501;-60
2021/12/13 14:57:50;;;;;;;16.57;11.77;;;;;;;;;;5048292;28;20477;-59
2021/12/13 15:00:22;;;;;;;14.47;10.80;;;;;;;;;;5052081;28;20410;-59
2021/12/13 15:02:52;;;;;;;15.80;11.30;;;;;;;;;;5050453;28;20406;-60
2021/12/13 15:05:21;;;;;;;14.87;11.23;;;;;;;;;;5040680;28;20916;-59
2021/12/13 15:07:50;;;;;;;15.20;11.77;;;;;;;;;;5035113;28;20454;-59
2021/12/13 15:10:19;;;;;;;15.23;12.03;;;;;;;;;;5042770;28;20441;-60
2021/12/13 15:12:46;;;;;;;19.20;12.27;;;;;;;;;;5045769;28;20418;-60
2021/12/13 15:15:13;;;;;;;16.10;12.83;;;;;;;;;;5048705;28;20918;-59
2021/12/13 15:17:41;;;;;;;17.97;11.77;;;;;;;;;;5050211;28;20557;-61